Time;durP1;ratioP1;P1;durP2;ratioP2;P2;SDS_P1;SDS_P2;PMS_P1;PMS_P2;Temp;Humidity;BMP_temperature;BMP_pressure;BME280_temperature;BME280_humidity;BME280_pressure;Samples;Min_cycle;Max_cycle;Signal;HPM_P1;HPM_P2
2022/04/17 00:02:23;;;;;;;4.40;3.27;;;;;;;7.91;99.60;100494.31;5039496;28;20194;-81
2022/04/17 00:04:52;;;;;;;4.80;3.33;;;;;;;8.03;97.97;100483.41;5029462;28;20220;-81
2022/04/17 00:07:24;;;;;;;4.80;3.40;;;;;;;7.85;98.49;100482.22;5026728;28;20213;-81
2022/04/17 00:09:53;;;;;;;4.60;3.30;;;;;;;7.94;98.57;100475.78;5025114;28;20197;-81
2022/04/17 00:12:23;;;;;;;5.10;3.77;;;;;;;7.88;98.57;100483.88;5026310;28;20515;-81
2022/04/17 00:14:53;;;;;;;4.63;3.33;;;;;;;7.78;98.38;100488.56;5029168;28;20218;-81
2022/04/17 00:17:23;;;;;;;4.33;3.50;;;;;;;7.65;100.00;100493.38;4948028;29;20690;-81
2022/04/17 00:19:58;;;;;;;4.20;3.27;;;;;;;7.57;100.00;100491.88;4954527;29;20232;-80
2022/04/17 00:22:31;;;;;;;4.80;3.83;;;;;;;7.44;100.00;100488.75;4950933;29;20334;-81
2022/04/17 00:25:01;;;;;;;4.17;3.70;;;;;;;7.24;100.00;100483.19;4858721;29;20203;-81
2022/04/17 00:27:31;;;;;;;6.90;5.13;;;;;;;7.20;100.00;100484.19;4837965;29;20205;-81
2022/04/17 00:30:02;;;;;;;4.27;3.43;;;;;;;7.27;100.00;100470.78;4836243;29;20219;-81
2022/04/17 00:32:33;;;;;;;4.97;3.30;;;;;;;7.41;100.00;100468.59;4836741;29;20208;-81
2022/04/17 00:35:06;;;;;;;4.93;3.77;;;;;;;7.58;100.00;100464.59;4780725;30;20742;-82
2022/04/17 00:37:43;;;;;;;3.77;3.20;;;;;;;7.58;100.00;100454.06;4768672;30;20225;-81
2022/04/17 00:40:11;;;;;;;4.07;3.10;;;;;;;7.31;100.00;100456.59;4769653;30;20723;-81
2022/04/17 00:42:41;;;;;;;5.40;3.00;;;;;;;6.85;100.00;100449.16;4809248;29;20718;-81
2022/04/17 00:45:11;;;;;;;11.70;7.83;;;;;;;6.81;100.00;100445.75;4822151;29;20244;-81
2022/04/17 00:47:40;;;;;;;3.93;3.33;;;;;;;6.71;100.00;100452.19;4816934;29;20262;-82
2022/04/17 00:50:10;;;;;;;4.97;3.47;;;;;;;6.74;100.00;100446.81;4833970;29;20284;-81
2022/04/17 00:52:44;;;;;;;4.53;3.40;;;;;;;6.69;100.00;100455.78;4885726;29;20212;-81
2022/04/17 00:55:17;;;;;;;5.17;3.47;;;;;;;6.69;100.00;100461.03;4948958;29;20239;-81
2022/04/17 00:57:49;;;;;;;5.23;3.60;;;;;;;6.43;100.00;100457.31;4933809;29;20290;-80
2022/04/17 01:00:22;;;;;;;4.77;3.57;;;;;;;6.39;100.00;100450.44;4892941;29;20194;-80
2022/04/17 01:02:52;;;;;;;4.70;3.57;;;;;;;6.46;100.00;100441.44;4951886;29;20215;-81
2022/04/17 01:05:21;;;;;;;5.23;3.40;;;;;;;6.40;100.00;100452.16;4957063;29;20228;-81
2022/04/17 01:07:52;;;;;;;6.30;3.87;;;;;;;6.35;100.00;100447.91;4950038;28;20648;-80
2022/04/17 01:10:21;;;;;;;4.17;3.77;;;;;;;6.41;100.00;100442.47;4973310;28;20213;-80
2022/04/17 01:12:54;;;;;;;5.57;3.57;;;;;;;6.36;100.00;100442.59;4989100;28;20206;-81
2022/04/17 01:15:24;;;;;;;5.77;3.33;;;;;;;6.57;100.00;100433.28;4981745;28;20223;-80
2022/04/17 01:17:55;;;;;;;4.23;3.60;;;;;;;6.54;100.00;100438.59;4962436;28;20206;-80
2022/04/17 01:20:30;;;;;;;6.50;3.53;;;;;;;6.45;100.00;100437.09;4974071;28;20196;-80
2022/04/17 01:28:41;;;;;;;9.50;3.80;;;;;;;6.02;100.00;100447.84;4989097;28;20191;-80
2022/04/17 01:31:10;;;;;;;6.20;3.50;;;;;;;6.12;100.00;100446.72;5012416;28;20197;-80
2022/04/17 01:33:41;;;;;;;5.13;3.50;;;;;;;6.23;100.00;100442.06;5033918;28;20200;-81
2022/04/17 01:36:11;;;;;;;3.37;3.07;;;;;;;6.15;100.00;100440.53;5031237;28;20194;-80
2022/04/17 01:38:44;;;;;;;5.30;3.50;;;;;;;6.02;100.00;100429.44;5026769;28;20198;-80
2022/04/17 01:41:15;;;;;;;5.23;3.50;;;;;;;6.01;100.00;100433.84;5030365;28;20204;-81
2022/04/17 01:43:44;;;;;;;3.70;3.27;;;;;;;5.69;100.00;100426.72;4971951;28;20196;-80
2022/04/17 01:46:15;;;;;;;4.87;3.60;;;;;;;5.83;100.00;100420.25;4971008;28;20267;-80
2022/04/17 01:48:43;;;;;;;5.43;3.30;;;;;;;5.72;100.00;100418.75;4965416;28;20234;-80
2022/04/17 01:51:15;;;;;;;3.87;3.30;;;;;;;5.76;100.00;100414.28;4965411;28;20201;-80
2022/04/17 01:53:46;;;;;;;4.83;3.37;;;;;;;5.98;100.00;100412.00;4953116;28;20250;-80
2022/04/17 01:56:22;;;;;;;5.47;3.30;;;;;;;6.19;100.00;100408.00;4896706;29;20202;-80
2022/04/17 01:58:53;;;;;;;4.73;3.30;;;;;;;6.23;100.00;100412.25;4888186;29;20250;-80
2022/04/17 02:01:22;;;;;;;4.63;3.43;;;;;;;6.10;100.00;100413.47;4896018;29;20202;-80
2022/04/17 02:03:58;;;;;;;4.90;3.20;;;;;;;5.80;100.00;100413.31;4911365;29;20212;-80
2022/04/17 02:06:27;;;;;;;4.80;3.20;;;;;;;5.87;100.00;100417.50;4909112;29;20217;-80
2022/04/17 02:08:58;;;;;;;3.50;3.10;;;;;;;5.88;100.00;100416.59;4906771;29;20253;-80
2022/04/17 02:11:45;;;;;;;3.10;2.80;;;;;;;5.67;100.00;100420.59;4906273;29;20202;-80
2022/04/17 02:14:16;;;;;;;4.37;3.50;;;;;;;5.52;100.00;100426.25;4940522;28;20218;-80
2022/04/17 02:16:45;;;;;;;3.57;3.07;;;;;;;5.53;100.00;100416.59;4979061;28;20206;-80
2022/04/17 02:19:14;;;;;;;3.93;2.67;;;;;;;5.25;100.00;100413.72;5000953;28;20193;-81
2022/04/17 02:21:51;;;;;;;3.67;3.20;;;;;;;5.17;100.00;100403.38;5051142;28;20209;-80
2022/04/17 02:24:21;;;;;;;3.53;3.10;;;;;;;5.11;100.00;100403.50;5055366;28;20205;-80
2022/04/17 02:26:49;;;;;;;4.00;3.17;;;;;;;4.97;100.00;100400.31;5050306;28;20196;-80
2022/04/17 02:29:19;;;;;;;6.07;3.57;;;;;;;5.12;100.00;100406.13;5058928;28;20189;-80
2022/04/17 02:31:47;;;;;;;6.33;3.43;;;;;;;5.11;100.00;100404.34;5050266;28;20204;-80
2022/04/17 02:34:17;;;;;;;6.43;3.57;;;;;;;5.26;100.00;100410.19;5049517;28;20189;-80
2022/04/17 02:36:46;;;;;;;6.40;3.00;;;;;;;5.37;100.00;100402.94;5051958;28;20204;-79
2022/04/17 02:39:21;;;;;;;3.93;3.20;;;;;;;5.36;100.00;100404.69;5048635;28;20296;-80
2022/04/17 02:41:51;;;;;;;3.20;2.90;;;;;;;5.17;100.00;100408.63;5044223;28;20329;-81
2022/04/17 02:44:21;;;;;;;4.53;3.37;;;;;;;4.99;100.00;100398.50;5051963;28;20214;-80
2022/04/17 02:49:35;;;;;;;4.70;3.07;;;;;;;5.18;100.00;100391.97;5053180;28;20240;-80
2022/04/17 02:52:04;;;;;;;4.77;3.13;;;;;;;5.17;100.00;100392.88;5048681;28;20201;-80
2022/04/17 02:54:34;;;;;;;4.73;3.17;;;;;;;5.30;100.00;100389.06;5048895;28;20204;-80
2022/04/17 02:57:06;;;;;;;4.23;2.97;;;;;;;5.25;100.00;100395.34;5046833;28;20706;-80
2022/04/17 02:59:36;;;;;;;3.97;3.10;;;;;;;5.38;100.00;100394.16;5007506;28;20202;-81
2022/04/17 03:07:39;;;;;;;4.20;3.00;;;;;;;5.16;100.00;100383.25;4994663;28;20206;-80
2022/04/17 03:10:09;;;;;;;5.87;3.23;;;;;;;5.14;100.00;100385.06;4994763;28;20211;-81
2022/04/17 03:12:40;;;;;;;3.90;3.00;;;;;;;4.99;100.00;100377.50;4994998;28;20287;-80
2022/04/17 03:15:10;;;;;;;3.90;3.10;;;;;;;4.73;100.00;100380.66;4989087;28;20218;-80
2022/04/17 03:17:43;;;;;;;5.60;3.50;;;;;;;4.71;100.00;100382.47;5016758;28;20192;-81
2022/04/17 03:20:14;;;;;;;4.43;3.20;;;;;;;4.58;100.00;100389.72;5048125;28;20197;-81
2022/04/17 03:22:43;;;;;;;4.33;2.77;;;;;;;4.48;100.00;100383.81;5053773;28;20308;-81
2022/04/17 03:25:17;;;;;;;5.60;3.60;;;;;;;4.14;100.00;100388.78;5046946;28;20246;-81
2022/04/17 03:27:51;;;;;;;4.07;3.10;;;;;;;4.18;100.00;100381.75;5048031;28;20212;-81
2022/04/17 03:30:20;;;;;;;5.27;3.33;;;;;;;4.39;100.00;100385.75;5048209;28;20196;-81
2022/04/17 03:32:51;;;;;;;4.17;3.33;;;;;;;4.35;100.00;100389.31;5043633;28;20193;-81
2022/04/17 03:35:23;;;;;;;5.40;3.40;;;;;;;4.46;100.00;100379.50;5050182;28;20256;-80
2022/04/17 03:37:53;;;;;;;4.83;3.40;;;;;;;4.63;100.00;100382.63;5045235;28;20201;-81
2022/04/17 03:40:24;;;;;;;5.97;3.80;;;;;;;4.69;100.00;100379.03;4972864;28;20200;-81
2022/04/17 03:42:56;;;;;;;4.80;3.37;;;;;;;4.58;100.00;100379.25;4988216;28;20203;-80
2022/04/17 03:45:24;;;;;;;3.67;3.03;;;;;;;4.54;100.00;100375.81;4986617;28;20195;-81
2022/04/17 03:47:53;;;;;;;3.43;2.90;;;;;;;4.63;100.00;100376.50;4982255;28;20306;-80
2022/04/17 03:50:23;;;;;;;6.53;3.00;;;;;;;4.53;100.00;100373.19;4952330;29;20822;-80
2022/04/17 03:52:52;;;;;;;4.47;3.30;;;;;;;4.67;100.00;100376.44;4946445;29;20215;-80
2022/04/17 03:55:21;;;;;;;5.53;3.33;;;;;;;4.56;100.00;100376.66;4949486;29;20220;-80
2022/04/17 03:57:54;;;;;;;4.47;3.50;;;;;;;4.52;100.00;100382.84;4959191;28;20241;-81
2022/04/17 04:00:26;;;;;;;4.53;3.13;;;;;;;4.29;100.00;100379.81;5030447;28;20293;-80
2022/04/17 04:03:03;;;;;;;4.33;3.40;;;;;;;4.38;100.00;100377.00;5030270;28;20205;-80
2022/04/17 04:05:33;;;;;;;4.50;3.57;;;;;;;4.31;100.00;100372.75;5031284;28;20194;-80
2022/04/17 04:08:02;;;;;;;5.80;3.23;;;;;;;4.33;100.00;100376.22;5029472;28;20201;-80
2022/04/17 04:10:38;;;;;;;4.60;2.90;;;;;;;4.26;100.00;100370.25;5027012;28;20656;-80
2022/04/17 04:13:08;;;;;;;3.60;3.30;;;;;;;4.34;100.00;100364.81;5030899;28;20201;-80
2022/04/17 04:15:39;;;;;;;3.70;2.97;;;;;;;4.20;100.00;100364.25;5031017;28;20275;-81
2022/04/17 04:18:08;;;;;;;5.67;3.50;;;;;;;4.18;100.00;100364.28;5028642;28;20201;-80
2022/04/17 04:20:36;;;;;;;4.27;3.00;;;;;;;4.47;100.00;100361.09;5030194;28;20201;-81
2022/04/17 04:23:10;;;;;;;4.50;3.53;;;;;;;4.35;100.00;100369.22;5007633;28;20191;-80
2022/04/17 04:25:40;;;;;;;4.47;3.13;;;;;;;4.33;100.00;100365.72;5009833;28;20645;-80
2022/04/17 04:31:12;;;;;;;3.67;2.83;;;;;;;4.64;100.00;100363.38;4946302;28;20198;-81
2022/04/17 04:33:47;;;;;;;4.70;3.30;;;;;;;4.49;100.00;100361.91;4974501;28;20302;-81
2022/04/17 04:36:17;;;;;;;3.80;3.20;;;;;;;4.55;100.00;100360.94;4954461;28;20224;-81
2022/04/17 04:38:47;;;;;;;4.60;2.93;;;;;;;4.46;100.00;100371.63;4951295;29;20283;-81
2022/04/17 04:41:16;;;;;;;4.20;3.00;;;;;;;4.44;100.00;100376.00;4949794;28;20211;-80
2022/04/17 04:43:46;;;;;;;5.57;4.57;;;;;;;4.51;100.00;100370.63;4876535;29;20195;-80
2022/04/17 04:46:18;;;;;;;4.63;3.83;;;;;;;4.37;100.00;100377.03;4857195;29;20294;-81
2022/04/17 04:51:38;;;;;;;6.27;3.40;;;;;;;4.37;100.00;100375.28;4865772;29;20302;-81
2022/04/17 04:54:13;;;;;;;3.70;3.30;;;;;;;4.31;100.00;100375.38;4872786;29;20218;-80
2022/04/17 04:56:43;;;;;;;4.37;3.17;;;;;;;4.15;100.00;100373.94;4875452;29;20226;-80
2022/04/17 04:59:11;;;;;;;4.70;3.00;;;;;;;3.94;100.00;100378.66;4873569;29;20238;-80
2022/04/17 05:01:42;;;;;;;5.23;3.47;;;;;;;3.97;100.00;100378.63;4901073;29;20209;-80
2022/04/17 05:04:15;;;;;;;3.93;3.40;;;;;;;3.97;100.00;100378.63;4914070;29;20193;-80
2022/04/17 05:06:48;;;;;;;6.17;3.43;;;;;;;3.98;100.00;100388.22;4915275;29;20205;-80
2022/04/17 05:09:18;;;;;;;5.60;3.90;;;;;;;4.00;100.00;100377.72;4960092;28;20203;-81
2022/04/17 05:11:49;;;;;;;5.67;3.73;;;;;;;3.99;100.00;100376.84;4966942;28;20231;-81
2022/04/17 05:14:22;;;;;;;3.70;3.33;;;;;;;4.25;100.00;100384.25;4964829;28;20243;-80
2022/04/17 05:16:54;;;;;;;5.47;3.57;;;;;;;4.27;100.00;100371.97;4966265;28;20304;-80
2022/04/17 05:19:27;;;;;;;4.13;3.50;;;;;;;4.30;100.00;100371.91;4913904;29;20258;-80
2022/04/17 05:22:02;;;;;;;5.50;3.70;;;;;;;4.45;100.00;100372.53;4913976;29;20205;-80
2022/04/17 05:24:45;;;;;;;4.27;3.57;;;;;;;4.55;100.00;100361.81;4882833;29;20214;-81
2022/04/17 05:27:15;;;;;;;5.50;3.33;;;;;;;4.75;100.00;100366.66;4895008;29;20202;-80
2022/04/17 05:29:43;;;;;;;3.90;3.07;;;;;;;4.88;100.00;100365.47;4894076;29;20785;-81
2022/04/17 05:32:27;;;;;;;5.03;3.53;;;;;;;4.94;100.00;100358.38;4895204;29;20206;-81
2022/04/17 05:34:55;;;;;;;4.77;3.30;;;;;;;5.06;100.00;100361.59;4888568;29;20220;-81
2022/04/17 05:37:29;;;;;;;5.60;3.10;;;;;;;5.13;100.00;100350.06;4893851;29;20228;-81
2022/04/17 05:39:57;;;;;;;4.00;3.20;;;;;;;5.07;100.00;100355.44;4910926;29;20242;-80
2022/04/17 05:42:26;;;;;;;6.47;3.53;;;;;;;4.98;100.00;100358.28;4915974;29;20724;-80
2022/04/17 05:44:55;;;;;;;5.23;3.47;;;;;;;5.24;100.00;100357.69;4919807;29;20198;-80
2022/04/17 05:47:35;;;;;;;9.63;3.77;;;;;;;5.37;100.00;100356.50;4871904;29;20237;-80
2022/04/17 05:50:08;;;;;;;5.63;3.80;;;;;;;5.43;100.00;100351.13;4910816;29;20232;-80
2022/04/17 05:52:37;;;;;;;7.10;3.37;;;;;;;5.72;100.00;100363.53;4927613;29;20217;-81
2022/04/17 05:55:23;;;;;;;3.93;3.07;;;;;;;5.79;100.00;100356.38;4949204;29;20287;-81
2022/04/17 05:57:57;;;;;;;3.93;3.20;;;;;;;5.86;100.00;100357.94;4917902;29;20229;-81
2022/04/17 06:00:27;;;;;;;3.87;3.10;;;;;;;5.95;100.00;100351.59;4919426;29;20197;-80
2022/04/17 06:02:58;;;;;;;4.87;3.30;;;;;;;5.96;100.00;100351.56;4927699;29;20246;-80
2022/04/17 06:05:30;;;;;;;3.37;3.07;;;;;;;6.01;100.00;100352.31;4912740;29;20190;-80
2022/04/17 06:08:01;;;;;;;3.63;3.00;;;;;;;6.22;100.00;100348.25;4894757;29;20221;-80
2022/04/17 06:10:37;;;;;;;5.77;3.60;;;;;;;6.34;100.00;100343.56;4840388;29;20220;-80
2022/04/17 06:13:08;;;;;;;3.77;3.37;;;;;;;6.40;100.00;100351.28;4858875;29;20205;-81
2022/04/17 06:15:36;;;;;;;4.47;3.67;;;;;;;6.48;100.00;100349.31;4872778;29;20745;-81
2022/04/17 06:18:15;;;;;;;4.97;3.63;;;;;;;6.63;100.00;100348.84;4853198;29;20232;-80
2022/04/17 06:20:46;;;;;;;4.07;3.20;;;;;;;6.60;100.00;100344.56;4855157;29;20214;-82
2022/04/17 06:23:16;;;;;;;7.27;3.87;;;;;;;6.72;100.00;100345.97;4860632;29;20208;-81
2022/04/17 06:25:46;;;;;;;7.67;3.63;;;;;;;6.87;100.00;100345.53;4858843;29;20282;-80
2022/04/17 06:28:17;;;;;;;4.33;3.40;;;;;;;6.88;100.00;100349.88;4890875;29;20209;-81
2022/04/17 06:30:51;;;;;;;4.10;3.67;;;;;;;6.94;100.00;100345.31;4935185;29;20193;-81
2022/04/17 06:33:22;;;;;;;6.00;4.07;;;;;;;6.97;100.00;100339.97;4929149;29;20204;-82
2022/04/17 06:35:52;;;;;;;4.77;3.83;;;;;;;7.06;100.00;100345.84;4932326;29;20305;-81
2022/04/17 06:38:21;;;;;;;5.00;3.57;;;;;;;7.21;100.00;100341.84;4937055;28;20309;-81
2022/04/17 06:40:52;;;;;;;6.87;3.73;;;;;;;7.20;100.00;100339.25;4974810;28;20192;-82
2022/04/17 06:43:21;;;;;;;6.03;4.10;;;;;;;7.41;100.00;100346.50;5003293;28;20199;-81
2022/04/17 06:45:49;;;;;;;5.87;4.03;;;;;;;7.39;100.00;100349.19;4930758;29;20204;-81
2022/04/17 06:48:25;;;;;;;3.97;3.40;;;;;;;7.59;100.00;100353.81;4935902;29;20199;-81
2022/04/17 06:50:55;;;;;;;6.53;3.60;;;;;;;7.78;100.00;100348.78;4950880;29;20239;-81
2022/04/17 06:53:26;;;;;;;4.83;3.40;;;;;;;7.90;100.00;100347.50;4948457;29;20211;-81
2022/04/17 06:56:02;;;;;;;4.30;3.80;;;;;;;8.04;100.00;100351.41;4954150;29;20690;-82
2022/04/17 06:58:41;;;;;;;3.93;3.53;;;;;;;8.12;100.00;100340.59;4936629;29;20225;-81
2022/04/17 07:01:15;;;;;;;5.27;3.80;;;;;;;8.19;100.00;100335.94;4950025;29;20230;-81
2022/04/17 07:03:47;;;;;;;5.97;3.70;;;;;;;8.42;100.00;100329.91;4924829;28;20231;-82
2022/04/17 07:06:20;;;;;;;4.43;3.70;;;;;;;8.56;100.00;100332.88;4960936;28;20206;-81
2022/04/17 07:08:50;;;;;;;4.63;3.53;;;;;;;8.59;100.00;100333.66;4967980;28;20357;-82
2022/04/17 07:11:26;;;;;;;5.07;3.67;;;;;;;8.66;100.00;100323.69;4968239;28;20204;-81
2022/04/17 07:13:55;;;;;;;4.67;2.67;;;;;;;8.83;100.00;100320.44;4967101;28;20211;-81
2022/04/17 07:16:26;;;;;;;4.73;2.77;;;;;;;9.17;100.00;100320.00;4968567;28;20207;-81
2022/04/17 07:18:56;;;;;;;3.40;3.10;;;;;;;9.34;100.00;100321.94;4966907;28;20227;-82
2022/04/17 07:21:28;;;;;;;2.87;2.33;;;;;;;9.38;100.00;100323.56;4989029;28;20213;-81
2022/04/17 07:23:57;;;;;;;3.50;2.30;;;;;;;9.49;100.00;100317.84;4994090;28;20203;-81
2022/04/17 07:26:28;;;;;;;2.37;2.07;;;;;;;9.78;100.00;100317.47;4988525;28;20195;-82
2022/04/17 07:28:57;;;;;;;3.30;2.10;;;;;;;9.86;97.81;100315.38;4989249;28;20199;-82
2022/04/17 07:31:29;;;;;;;4.40;2.37;;;;;;;9.90;94.70;100313.44;4990862;28;20207;-82
2022/04/17 07:34:00;;;;;;;5.07;2.20;;;;;;;9.74;89.72;100314.09;4913153;29;20238;-82
2022/04/17 07:36:30;;;;;;;3.47;2.30;;;;;;;10.00;88.00;100317.41;4909357;29;20213;-81
2022/04/17 07:38:59;;;;;;;3.27;1.83;;;;;;;9.84;86.95;100313.69;4913947;29;20357;-81
2022/04/17 07:41:28;;;;;;;3.37;2.13;;;;;;;10.19;88.04;100318.34;4893922;29;20202;-81
2022/04/17 07:43:57;;;;;;;4.90;2.47;;;;;;;10.43;88.15;100315.59;4890077;29;20218;-81
2022/04/17 07:46:30;;;;;;;3.20;1.97;;;;;;;10.44;84.69;100306.72;4875068;29;20315;-82
2022/04/17 07:49:01;;;;;;;2.30;1.90;;;;;;;10.40;85.15;100305.97;4884484;29;20323;-81
2022/04/17 07:51:30;;;;;;;4.70;2.13;;;;;;;10.56;81.64;100311.44;4926091;28;20204;-81
2022/04/17 07:54:02;;;;;;;3.83;2.10;;;;;;;10.48;80.96;100301.19;4969591;28;20213;-81
2022/04/17 07:56:34;;;;;;;2.40;2.00;;;;;;;10.68;81.13;100310.03;4966584;28;20200;-80
2022/04/17 07:59:04;;;;;;;3.47;1.77;;;;;;;10.70;82.55;100301.06;4965255;28;20220;-81
2022/04/17 08:01:39;;;;;;;2.80;2.00;;;;;;;10.75;82.21;100295.56;4972256;28;20207;-82
2022/04/17 08:04:12;;;;;;;3.07;2.20;;;;;;;11.01;82.16;100302.31;4984326;28;20194;-82
2022/04/17 08:06:45;;;;;;;3.90;2.13;;;;;;;11.19;78.04;100298.75;5025824;28;20209;-82
2022/04/17 08:09:15;;;;;;;3.77;2.00;;;;;;;11.31;75.55;100292.88;5035868;28;20209;-81
2022/04/17 08:11:43;;;;;;;3.40;1.97;;;;;;;11.33;69.58;100292.78;4998039;28;20203;-81
2022/04/17 08:14:11;;;;;;;2.07;1.60;;;;;;;11.31;62.67;100295.53;4990592;28;20207;-81
2022/04/17 08:16:40;;;;;;;3.97;1.83;;;;;;;10.96;60.84;100296.34;4988264;28;20191;-81
2022/04/17 08:19:09;;;;;;;3.47;1.57;;;;;;;11.20;64.07;100297.00;4984887;28;20761;-82
2022/04/17 08:21:48;;;;;;;3.30;1.70;;;;;;;11.38;65.78;100288.97;4987580;28;20199;-81
2022/04/17 08:24:19;;;;;;;3.30;2.10;;;;;;;11.62;64.66;100286.91;4980893;28;20199;-82
2022/04/17 08:26:50;;;;;;;2.23;1.70;;;;;;;11.66;63.63;100288.47;4985495;28;20203;-82
2022/04/17 08:29:19;;;;;;;5.77;2.60;;;;;;;11.71;63.29;100289.09;4964060;28;20203;-82
2022/04/17 08:31:50;;;;;;;2.13;1.70;;;;;;;11.76;62.63;100275.56;4987608;28;20199;-81
2022/04/17 08:34:19;;;;;;;4.00;1.90;;;;;;;11.70;62.84;100279.41;4984365;28;20215;-82
2022/04/17 08:36:53;;;;;;;2.50;1.60;;;;;;;11.86;64.45;100279.50;4986829;28;20207;-82
2022/04/17 08:39:22;;;;;;;2.83;1.63;;;;;;;11.67;62.93;100282.22;4990951;28;20263;-82
2022/04/17 08:41:54;;;;;;;4.00;2.20;;;;;;;11.68;63.83;100277.78;4900668;29;20224;-82
2022/04/17 08:44:24;;;;;;;4.53;2.10;;;;;;;11.83;64.12;100277.03;4894136;29;20209;-81
2022/04/17 08:46:54;;;;;;;2.70;1.80;;;;;;;12.17;62.15;100277.94;4905838;29;20201;-82
2022/04/17 08:49:26;;;;;;;3.10;2.07;;;;;;;12.51;62.21;100277.84;4875944;29;20231;-82
2022/04/17 08:51:58;;;;;;;2.27;1.60;;;;;;;12.37;61.48;100280.41;4873384;29;20207;-83
2022/04/17 08:54:29;;;;;;;3.77;1.80;;;;;;;12.53;64.47;100281.28;4873965;29;20663;-82
2022/04/17 08:56:57;;;;;;;3.77;1.90;;;;;;;12.79;62.91;100276.34;4867940;29;20215;-82
2022/04/17 08:59:26;;;;;;;2.30;2.10;;;;;;;12.93;59.06;100268.44;4896068;29;20219;-83
2022/04/17 09:02:07;;;;;;;2.23;2.03;;;;;;;12.86;59.26;100256.47;4950199;29;20283;-82
2022/04/17 09:04:36;;;;;;;1.63;1.53;;;;;;;13.18;57.80;100255.50;4945770;29;20683;-82
2022/04/17 09:07:10;;;;;;;4.93;2.40;;;;;;;12.77;60.44;100257.81;4974159;28;20204;-82
2022/04/17 09:09:43;;;;;;;2.67;1.80;;;;;;;13.12;59.42;100254.97;5030545;28;20205;-82
2022/04/17 09:12:19;;;;;;;3.27;1.73;;;;;;;13.29;57.23;100248.72;5028378;28;20220;-82
2022/04/17 09:14:50;;;;;;;3.83;1.90;;;;;;;13.57;56.92;100255.97;5029586;28;20201;-82
2022/04/17 09:17:30;;;;;;;4.20;2.10;;;;;;;13.54;56.83;100249.03;5028002;28;20201;-82
2022/04/17 09:19:58;;;;;;;2.13;1.60;;;;;;;13.70;55.40;100252.50;5026537;28;20264;-83
2022/04/17 09:22:46;;;;;;;2.47;1.93;;;;;;;13.73;54.81;100241.66;5029042;28;20205;-82
2022/04/17 09:25:17;;;;;;;3.80;1.80;;;;;;;13.89;54.66;100230.94;4979167;28;20221;-82
2022/04/17 09:28:01;;;;;;;4.07;1.60;;;;;;;14.17;55.76;100226.59;5025776;28;20266;-82
2022/04/17 09:30:32;;;;;;;3.23;1.93;;;;;;;14.01;55.64;100221.34;5029243;28;20197;-82
2022/04/17 09:33:06;;;;;;;4.73;2.23;;;;;;;14.36;56.89;100215.63;5007843;28;20671;-82
2022/04/17 09:35:35;;;;;;;3.73;2.20;;;;;;;14.55;54.40;100210.88;5030530;28;20194;-82
2022/04/17 09:38:10;;;;;;;4.20;2.00;;;;;;;14.48;52.60;100210.44;5024769;28;20202;-81
2022/04/17 09:40:41;;;;;;;2.43;1.80;;;;;;;14.68;51.87;100213.66;5025082;28;20204;-82
2022/04/17 09:43:20;;;;;;;4.17;1.70;;;;;;;14.81;51.36;100206.56;4935926;29;20212;-82
2022/04/17 09:46:01;;;;;;;2.47;1.90;;;;;;;14.08;52.84;100204.03;4936446;29;20197;-83
2022/04/17 09:48:32;;;;;;;3.67;1.97;;;;;;;14.59;52.74;100196.44;4837251;29;20667;-82
2022/04/17 09:51:22;;;;;;;3.13;2.03;;;;;;;14.49;51.49;100198.81;4852313;29;20335;-82
2022/04/17 09:54:00;;;;;;;4.67;2.17;;;;;;;14.69;51.87;100194.03;4855745;29;20223;-82
2022/04/17 09:56:34;;;;;;;3.30;1.90;;;;;;;14.92;52.83;100182.72;4855801;29;20694;-82
2022/04/17 09:59:17;;;;;;;3.10;2.10;;;;;;;15.05;53.23;100175.59;4855894;29;20253;-82
2022/04/17 10:01:50;;;;;;;4.17;2.30;;;;;;;15.70;50.91;100170.31;4828347;29;20199;-82
2022/04/17 10:04:20;;;;;;;3.57;2.10;;;;;;;16.00;47.45;100166.47;4853599;29;20195;-82
2022/04/17 10:06:52;;;;;;;3.13;1.90;;;;;;;15.89;45.97;100164.56;4856152;29;20309;-84
2022/04/17 10:09:26;;;;;;;3.70;1.83;;;;;;;15.71;43.72;100161.34;4843039;29;20204;-82
2022/04/17 10:12:03;;;;;;;4.17;1.80;;;;;;;15.68;45.85;100144.69;4847949;29;20212;-82
2022/04/17 10:14:34;;;;;;;2.83;1.93;;;;;;;15.85;44.62;100139.03;4899691;29;20203;-81
2022/04/17 10:17:09;;;;;;;2.13;1.57;;;;;;;15.98;45.85;100137.19;4957037;28;20270;-83
2022/04/17 10:19:42;;;;;;;1.97;1.60;;;;;;;16.00;43.28;100140.59;4974843;28;20220;-82
2022/04/17 10:22:18;;;;;;;3.07;1.60;;;;;;;16.53;41.45;100137.72;4912000;29;20213;-83
2022/04/17 10:25:08;;;;;;;3.63;1.60;;;;;;;16.60;41.43;100142.53;4913119;29;20231;-82
2022/04/17 10:27:43;;;;;;;2.20;1.60;;;;;;;16.78;41.12;100143.00;4914284;29;20202;-82
2022/04/17 10:30:18;;;;;;;2.13;1.60;;;;;;;16.67;41.05;100124.19;4913086;29;20213;-82
2022/04/17 10:33:29;;;;;;;3.30;1.53;;;;;;;16.64;40.53;100120.91;4893335;29;20199;-82
2022/04/17 10:36:14;;;;;;;3.13;1.70;;;;;;;17.26;36.92;100113.53;4893695;29;20202;-83
2022/04/17 10:38:49;;;;;;;2.40;1.50;;;;;;;17.59;35.59;100109.22;4857024;29;20196;-82
2022/04/17 10:41:30;;;;;;;3.80;1.90;;;;;;;17.85;34.82;100104.53;4788520;30;20217;-82
2022/04/17 10:44:03;;;;;;;1.37;1.27;;;;;;;17.36;36.35;100093.09;4758838;30;20233;-82
2022/04/17 10:46:46;;;;;;;3.37;1.63;;;;;;;17.01;36.18;100101.16;4782039;29;20203;-82
2022/04/17 10:49:21;;;;;;;5.73;1.80;;;;;;;17.22;36.74;100092.47;4809955;29;20225;-82
2022/04/17 10:51:54;;;;;;;2.43;1.77;;;;;;;17.76;36.25;100084.69;4885805;29;20203;-82
2022/04/17 10:54:33;;;;;;;3.37;1.70;;;;;;;17.52;35.46;100076.69;4898563;29;20202;-82
2022/04/17 10:57:10;;;;;;;2.73;1.80;;;;;;;18.17;34.44;100077.84;4898924;29;20226;-82
2022/04/17 10:59:47;;;;;;;3.47;1.70;;;;;;;18.57;33.31;100065.56;4932029;29;20216;-82
2022/04/17 11:02:26;;;;;;;2.33;1.30;;;;;;;18.27;34.07;100070.75;4946078;29;20204;-82
2022/04/17 11:04:57;;;;;;;4.30;1.90;;;;;;;18.69;32.61;100055.66;4899825;29;20214;-82
2022/04/17 11:07:31;;;;;;;3.07;1.40;;;;;;;18.63;32.35;100055.31;4900163;29;20195;-83
2022/04/17 11:10:31;;;;;;;4.90;1.77;;;;;;;18.49;32.01;100057.28;4896795;29;20205;-83
2022/04/17 11:13:03;;;;;;;1.93;1.50;;;;;;;18.31;32.12;100056.94;4893073;29;20218;-82
2022/04/17 11:15:35;;;;;;;3.40;1.40;;;;;;;18.43;30.28;100051.56;4904470;29;20203;-83
2022/04/17 11:18:06;;;;;;;2.30;1.60;;;;;;;18.25;30.85;100045.88;4948419;29;20211;-82
2022/04/17 11:20:41;;;;;;;2.80;2.20;;;;;;;18.19;32.31;100038.34;4937795;29;20224;-83
2022/04/17 11:23:13;;;;;;;3.10;1.90;;;;;;;18.82;31.62;100034.03;4970761;28;20194;-83
2022/04/17 11:25:54;;;;;;;2.60;1.97;;;;;;;18.81;30.97;100032.28;4984251;28;20202;-83
2022/04/17 11:28:38;;;;;;;2.40;1.67;;;;;;;19.07;31.12;100032.78;4988468;28;20242;-83
2022/04/17 11:31:09;;;;;;;2.07;1.60;;;;;;;19.24;29.92;100042.94;4990107;28;20203;-82
2022/04/17 11:33:39;;;;;;;3.27;1.73;;;;;;;19.53;28.91;100028.81;5011671;28;20193;-83
2022/04/17 11:36:12;;;;;;;2.50;1.70;;;;;;;19.45;29.24;100024.97;4992306;28;20195;-83
2022/04/17 11:38:46;;;;;;;2.33;1.90;;;;;;;19.47;29.31;100026.66;4955813;29;20197;-83
2022/04/17 11:41:23;;;;;;;3.97;2.00;;;;;;;19.39;29.72;100030.00;4956510;29;20227;-83
2022/04/17 11:44:05;;;;;;;3.00;1.80;;;;;;;18.94;29.32;100010.66;4951434;29;20196;-83
2022/04/17 11:46:35;;;;;;;4.07;1.90;;;;;;;19.87;27.96;100008.75;4950345;29;20200;-83
2022/04/17 11:49:05;;;;;;;1.90;1.70;;;;;;;20.11;27.23;100016.47;4953520;28;20239;-83
2022/04/17 11:51:46;;;;;;;2.33;1.87;;;;;;;19.31;28.10;100009.19;4987884;28;20209;-83
2022/04/17 11:54:31;;;;;;;3.97;1.90;;;;;;;19.66;28.07;100003.44;4989918;28;20302;-83
2022/04/17 11:57:01;;;;;;;2.93;1.60;;;;;;;19.94;27.64;99992.91;5007467;28;20217;-83
2022/04/17 11:59:47;;;;;;;2.87;1.90;;;;;;;19.16;28.38;100000.63;5009192;28;20288;-83
2022/04/17 12:02:18;;;;;;;4.00;1.60;;;;;;;20.22;27.26;99992.13;5010281;28;20194;-83
2022/04/17 12:04:48;;;;;;;3.27;1.43;;;;;;;20.19;27.02;99988.88;4951661;29;20196;-83
2022/04/17 12:07:21;;;;;;;1.80;1.45;;;;;;;19.80;27.13;99994.16;4951939;29;20188;-83
2022/04/17 12:09:50;;;;;;;3.17;1.70;;;;;;;20.25;27.15;99981.09;4947536;29;20245;-83
2022/04/17 12:12:20;;;;;;;3.05;1.90;;;;;;;20.43;28.69;99983.13;4970325;28;20195;-83